Time;durP1;ratioP1;P1;durP2;ratioP2;P2;SDS_P1;SDS_P2;PMS_P1;PMS_P2;Temp;Humidity;BMP_temperature;BMP_pressure;BME280_temperature;BME280_humidity;BME280_pressure;Samples;Min_cycle;Max_cycle;Signal;HPM_P1;HPM_P2
2023/05/08 00:02:12;;;;;;;1.80;1.70;;;18.40;90.50;;;;;;4992401;28;20917;-71
2023/05/08 00:04:40;;;;;;;3.17;2.43;;;18.30;90.50;;;;;;4987296;28;20439;-71
2023/05/08 00:07:10;;;;;;;3.27;3.00;;;18.30;90.50;;;;;;5002722;28;20427;-71
2023/05/08 00:09:38;;;;;;;2.07;1.87;;;18.40;90.50;;;;;;4988092;28;20985;-71
2023/05/08 00:12:07;;;;;;;4.47;3.70;;;18.30;90.40;;;;;;4994207;28;20471;-71
2023/05/08 00:14:36;;;;;;;2.70;2.50;;;18.30;90.50;;;;;;4992324;28;20444;-71
2023/05/08 00:17:04;;;;;;;5.83;2.67;;;18.30;90.50;;;;;;5009626;28;20449;-71
2023/05/08 00:19:33;;;;;;;2.00;1.80;;;18.30;90.50;;;;;;5003151;28;20470;-72
2023/05/08 00:22:01;;;;;;;2.60;2.20;;;18.30;90.30;;;;;;5007995;28;20422;-72
2023/05/08 00:24:31;;;;;;;1.83;1.73;;;18.30;90.20;;;;;;5002766;28;20447;-71
2023/05/08 00:26:59;;;;;;;3.10;2.73;;;18.30;90.40;;;;;;5009360;28;20453;-71
2023/05/08 00:29:28;;;;;;;5.93;2.57;;;18.30;90.50;;;;;;4987269;28;20497;-71
2023/05/08 00:31:56;;;;;;;2.10;1.50;;;18.30;90.50;;;;;;5002486;28;20450;-71
2023/05/08 00:34:25;;;;;;;4.10;3.80;;;18.30;90.20;;;;;;4987589;28;20458;-71
2023/05/08 00:36:53;;;;;;;2.30;2.10;;;18.30;90.50;;;;;;5004546;28;20453;-71
2023/05/08 00:39:21;;;;;;;5.30;4.60;;;18.30;90.40;;;;;;4985926;28;21006;-71
2023/05/08 00:41:51;;;;;;;4.30;3.90;;;18.30;90.50;;;;;;5002811;28;20451;-71
2023/05/08 00:44:20;;;;;;;3.90;3.43;;;18.30;90.50;;;;;;4987258;28;20477;-71
2023/05/08 00:46:48;;;;;;;3.00;2.63;;;18.30;90.50;;;;;;5014435;28;20446;-71
2023/05/08 00:49:18;;;;;;;3.30;2.77;;;18.30;90.50;;;;;;4998686;28;20901;-71
2023/05/08 00:51:50;;;;;;;4.23;3.83;;;18.30;90.50;;;;;;4986750;28;20434;-71
2023/05/08 00:54:19;;;;;;;3.63;3.33;;;18.30;90.50;;;;;;4984399;28;20994;-71
2023/05/08 00:56:49;;;;;;;3.00;2.80;;;18.30;90.50;;;;;;5006098;28;20437;-71
2023/05/08 00:59:21;;;;;;;4.00;3.70;;;18.20;90.50;;;;;;4997937;28;20478;-71
2023/05/08 01:01:51;;;;;;;2.60;2.40;;;18.30;90.50;;;;;;4981846;28;20457;-71
2023/05/08 01:04:21;;;;;;;3.97;3.67;;;18.30;90.50;;;;;;4983178;28;20492;-71
2023/05/08 01:06:49;;;;;;;3.50;3.30;;;18.30;90.50;;;;;;5002989;28;20434;-71
2023/05/08 01:09:18;;;;;;;1.67;1.57;;;18.30;90.50;;;;;;4964218;28;20491;-71
2023/05/08 01:11:56;;;;;;;3.10;2.90;;;18.20;90.40;;;;;;4984184;28;20455;-71
2023/05/08 01:14:36;;;;;;;6.43;4.13;;;18.20;90.50;;;;;;4992051;28;20489;-72
2023/05/08 01:17:11;;;;;;;2.40;2.20;;;18.30;90.50;;;;;;4986363;28;20466;-71
2023/05/08 01:19:55;;;;;;;3.17;2.00;;;18.30;90.50;;;;;;4986809;28;20528;-71
2023/05/08 01:22:53;;;;;;;4.20;3.00;;;18.30;90.50;;;;;;4984077;28;20481;-71
2023/05/08 01:26:07;;;;;;;2.87;2.60;;;18.20;90.50;;;;;;5005869;28;20899;-71
2023/05/08 01:28:58;;;;;;;3.50;3.23;;;18.30;90.50;;;;;;4976956;28;20497;-71
2023/05/08 01:31:43;;;;;;;3.20;3.00;;;18.20;90.50;;;;;;4987611;28;20468;-71
2023/05/08 01:34:20;;;;;;;2.73;2.53;;;18.30;90.50;;;;;;5004833;28;20501;-71
2023/05/08 01:36:53;;;;;;;2.50;2.30;;;18.30;90.50;;;;;;4993063;28;20485;-71
2023/05/08 01:39:30;;;;;;;3.20;2.90;;;18.30;90.50;;;;;;5008358;28;20498;-72
2023/05/08 01:42:05;;;;;;;3.10;2.10;;;18.30;90.50;;;;;;4987647;28;20450;-71
2023/05/08 01:44:37;;;;;;;3.00;2.60;;;18.20;90.50;;;;;;5010510;28;20448;-71
2023/05/08 01:47:09;;;;;;;2.57;2.37;;;18.30;90.50;;;;;;5000653;28;20469;-71
2023/05/08 01:49:44;;;;;;;3.10;1.70;;;18.20;90.50;;;;;;4986282;28;20788;-71
2023/05/08 01:52:18;;;;;;;1.50;1.17;;;18.20;90.30;;;;;;4984034;28;20454;-73
2023/05/08 01:54:55;;;;;;;3.70;3.40;;;18.20;90.10;;;;;;4999570;28;20442;-71
2023/05/08 01:57:27;;;;;;;3.83;3.20;;;18.20;90.50;;;;;;4985408;28;20446;-71
2023/05/08 01:59:57;;;;;;;3.07;2.80;;;18.20;90.50;;;;;;5001385;28;20450;-71
2023/05/08 02:02:27;;;;;;;2.27;2.00;;;18.20;90.50;;;;;;4981485;28;20876;-71
2023/05/08 02:04:57;;;;;;;2.87;2.67;;;18.20;90.30;;;;;;5011722;28;20959;-72
2023/05/08 02:07:27;;;;;;;3.30;1.57;;;18.20;90.80;;;;;;4989568;28;20512;-71
2023/05/08 02:10:00;;;;;;;2.70;2.50;;;18.20;90.00;;;;;;5012425;28;20443;-71
2023/05/08 02:12:32;;;;;;;3.13;2.83;;;18.20;90.20;;;;;;4988716;28;20450;-71
2023/05/08 02:15:01;;;;;;;2.73;2.53;;;18.20;90.30;;;;;;5001593;28;20947;-71
2023/05/08 02:17:31;;;;;;;2.20;2.00;;;18.20;90.20;;;;;;4994544;28;21000;-71
2023/05/08 02:20:04;;;;;;;2.53;2.33;;;18.20;90.10;;;;;;5014785;28;20472;-71
2023/05/08 02:22:33;;;;;;;2.43;2.13;;;18.20;90.20;;;;;;4985393;28;21084;-71
2023/05/08 02:25:02;;;;;;;3.13;2.90;;;18.20;90.10;;;;;;5017779;28;20441;-71
2023/05/08 02:27:31;;;;;;;1.30;1.20;;;18.20;90.10;;;;;;5010521;28;20497;-71
2023/05/08 02:30:00;;;;;;;2.90;1.67;;;18.20;90.00;;;;;;5005235;28;20422;-71
2023/05/08 02:32:30;;;;;;;2.53;2.33;;;18.20;90.00;;;;;;4987664;28;20466;-71
2023/05/08 02:35:01;;;;;;;3.30;3.00;;;18.20;90.10;;;;;;5018552;28;20449;-71
2023/05/08 02:37:34;;;;;;;4.20;3.03;;;18.20;90.30;;;;;;5010150;28;20992;-71
2023/05/08 02:40:06;;;;;;;2.67;1.83;;;18.10;90.30;;;;;;5005432;28;20471;-71
2023/05/08 02:42:34;;;;;;;2.53;1.50;;;18.20;90.20;;;;;;4987119;28;20466;-71
2023/05/08 02:45:03;;;;;;;2.27;2.07;;;18.20;90.00;;;;;;5004627;28;20442;-71
2023/05/08 02:47:42;;;;;;;1.73;1.63;;;18.10;90.00;;;;;;5004278;28;20465;-71
2023/05/08 02:50:18;;;;;;;4.17;3.80;;;18.20;90.00;;;;;;5005352;28;20826;-72
2023/05/08 02:52:50;;;;;;;3.33;3.03;;;18.20;90.40;;;;;;4999145;28;20532;-71
2023/05/08 02:55:35;;;;;;;1.80;1.67;;;18.10;90.30;;;;;;5008085;28;20474;-71
2023/05/08 02:58:11;;;;;;;2.93;2.70;;;18.10;90.10;;;;;;4988542;28;20467;-71
2023/05/08 03:00:45;;;;;;;3.87;3.50;;;18.10;90.10;;;;;;5003875;28;20470;-71
2023/05/08 03:03:19;;;;;;;3.40;3.10;;;18.10;90.10;;;;;;4984569;28;20974;-71
2023/05/08 03:05:53;;;;;;;2.80;2.43;;;18.10;90.10;;;;;;4991578;28;20826;-71
2023/05/08 03:08:29;;;;;;;4.07;2.40;;;18.10;90.00;;;;;;4980828;28;20509;-71
2023/05/08 03:11:02;;;;;;;3.73;3.03;;;18.10;90.00;;;;;;5000334;28;20442;-71
2023/05/08 03:13:34;;;;;;;4.07;3.77;;;18.10;90.00;;;;;;5001909;28;20465;-71
2023/05/08 03:16:06;;;;;;;3.10;2.83;;;18.10;90.00;;;;;;4988577;28;20450;-71
2023/05/08 03:18:41;;;;;;;2.63;2.43;;;18.10;90.00;;;;;;5002148;28;20469;-71
2023/05/08 03:21:13;;;;;;;2.30;2.10;;;18.10;90.00;;;;;;5010181;28;20464;-71
2023/05/08 03:23:43;;;;;;;1.93;1.63;;;18.10;90.40;;;;;;5004576;28;20492;-71
2023/05/08 03:26:13;;;;;;;3.27;2.97;;;18.10;89.90;;;;;;5003588;28;20487;-71
2023/05/08 03:28:41;;;;;;;2.93;2.60;;;18.10;89.80;;;;;;4976492;28;20474;-71
2023/05/08 03:31:11;;;;;;;4.17;3.20;;;18.10;89.80;;;;;;4985561;28;20470;-71
2023/05/08 03:33:42;;;;;;;2.33;2.13;;;18.10;89.80;;;;;;4971114;28;20474;-71
2023/05/08 03:36:14;;;;;;;3.53;2.70;;;18.10;89.70;;;;;;4986149;28;20451;-71
2023/05/08 03:38:42;;;;;;;2.37;2.17;;;18.10;89.60;;;;;;4983528;28;20485;-71
2023/05/08 03:41:11;;;;;;;2.13;1.93;;;18.10;89.50;;;;;;5004791;28;20474;-72
2023/05/08 03:43:41;;;;;;;2.87;2.53;;;18.10;89.40;;;;;;4988409;28;20462;-71
2023/05/08 03:46:11;;;;;;;2.77;2.43;;;18.10;89.30;;;;;;5006582;28;20439;-71
2023/05/08 03:48:41;;;;;;;4.83;2.93;;;18.10;89.20;;;;;;4976078;28;20469;-71
2023/05/08 03:51:10;;;;;;;3.10;2.33;;;18.10;89.30;;;;;;4986741;28;20443;-71
2023/05/08 03:53:41;;;;;;;2.57;1.80;;;18.10;89.40;;;;;;4980966;28;20565;-71
2023/05/08 03:56:09;;;;;;;2.90;2.70;;;18.00;89.20;;;;;;5005205;28;20456;-72
2023/05/08 03:58:47;;;;;;;1.80;1.70;;;18.10;90.10;;;;;;4993850;28;20462;-71
2023/05/08 04:01:23;;;;;;;3.30;2.40;;;18.00;89.00;;;;;;5008615;28;20489;-71
2023/05/08 04:03:57;;;;;;;2.77;2.57;;;18.00;88.80;;;;;;4999278;28;20471;-71
2023/05/08 04:06:30;;;;;;;2.70;2.10;;;18.00;88.70;;;;;;5007550;28;20449;-71
2023/05/08 04:09:20;;;;;;;3.00;2.70;;;18.00;88.60;;;;;;4976448;28;20475;-71
2023/05/08 04:12:00;;;;;;;2.27;2.03;;;18.00;88.50;;;;;;4996463;28;20451;-71
2023/05/08 04:14:34;;;;;;;2.43;1.73;;;18.00;88.60;;;;;;4988090;28;20469;-71
2023/05/08 04:17:07;;;;;;;3.10;1.97;;;18.00;88.60;;;;;;5005621;28;20446;-71
2023/05/08 04:19:42;;;;;;;1.80;1.70;;;18.00;88.60;;;;;;4989910;28;20826;-71
2023/05/08 04:22:12;;;;;;;2.47;2.27;;;18.00;88.60;;;;;;5002397;28;20474;-71
2023/05/08 04:24:45;;;;;;;2.20;2.03;;;18.00;88.50;;;;;;4988971;28;20422;-71
2023/05/08 04:27:15;;;;;;;2.93;2.07;;;18.00;88.60;;;;;;5011493;28;20450;-71
2023/05/08 04:29:43;;;;;;;2.33;2.13;;;18.00;88.50;;;;;;5010782;28;20482;-71
2023/05/08 04:32:13;;;;;;;2.10;1.90;;;18.00;88.30;;;;;;4986904;28;20477;-71
2023/05/08 04:34:42;;;;;;;1.50;1.37;;;18.00;88.20;;;;;;4988885;28;20446;-71
2023/05/08 04:37:24;;;;;;;2.03;1.83;;;18.00;88.20;;;;;;4986961;28;20430;-71
2023/05/08 04:39:55;;;;;;;2.70;2.00;;;18.00;88.00;;;;;;4987951;28;20430;-71
2023/05/08 04:42:24;;;;;;;2.47;1.90;;;18.00;87.90;;;;;;4983397;28;20506;-71
2023/05/08 04:44:55;;;;;;;1.93;1.77;;;18.00;87.90;;;;;;4988072;28;20430;-72
2023/05/08 04:47:23;;;;;;;1.70;1.60;;;18.00;87.90;;;;;;4985876;28;20500;-71
2023/05/08 04:49:52;;;;;;;1.70;1.60;;;18.00;88.00;;;;;;4995267;28;20986;-71
2023/05/08 04:52:21;;;;;;;2.40;2.00;;;17.90;87.90;;;;;;4985964;28;20456;-71
2023/05/08 04:54:49;;;;;;;2.63;1.30;;;18.00;88.10;;;;;;5003704;28;20445;-71
2023/05/08 04:57:19;;;;;;;1.47;1.13;;;18.00;88.20;;;;;;4996017;28;21129;-71
2023/05/08 04:59:47;;;;;;;2.43;2.10;;;18.00;88.30;;;;;;4997517;28;20473;-71
2023/05/08 05:02:16;;;;;;;1.50;1.40;;;17.90;87.90;;;;;;4997527;28;20537;-71
2023/05/08 05:04:45;;;;;;;1.83;1.67;;;18.00;88.10;;;;;;5010316;28;20429;-71
2023/05/08 05:07:13;;;;;;;2.33;2.13;;;17.90;87.90;;;;;;4988568;28;20488;-72
2023/05/08 05:09:42;;;;;;;1.80;1.70;;;17.90;89.00;;;;;;4997587;28;21459;-71
2023/05/08 05:12:10;;;;;;;1.90;1.70;;;17.90;87.80;;;;;;5019175;28;20469;-71
2023/05/08 05:14:40;;;;;;;2.20;2.00;;;17.90;87.80;;;;;;5010896;28;20446;-71
2023/05/08 05:17:08;;;;;;;2.73;1.60;;;17.90;87.70;;;;;;4984100;28;20473;-71
2023/05/08 05:19:37;;;;;;;2.93;1.90;;;17.90;87.80;;;;;;4989276;28;20489;-71
2023/05/08 05:22:07;;;;;;;2.47;2.27;;;17.90;87.90;;;;;;4981112;28;20482;-71
2023/05/08 05:24:35;;;;;;;2.33;1.90;;;17.90;88.00;;;;;;4985195;28;20458;-71
2023/05/08 05:27:04;;;;;;;2.40;1.80;;;17.90;87.90;;;;;;4993767;28;20511;-71
2023/05/08 05:29:32;;;;;;;2.27;1.83;;;17.90;88.00;;;;;;5014908;28;20458;-71
2023/05/08 05:32:03;;;;;;;2.30;1.93;;;18.00;88.00;;;;;;5001693;28;20467;-71
2023/05/08 05:34:31;;;;;;;3.03;2.67;;;18.00;88.00;;;;;;5002877;28;21032;-71
2023/05/08 05:36:59;;;;;;;1.97;1.83;;;18.00;88.20;;;;;;4986226;28;20456;-71
2023/05/08 05:39:28;;;;;;;2.90;2.20;;;18.00;88.00;;;;;;5002273;28;20473;-71
2023/05/08 05:41:57;;;;;;;2.83;2.63;;;18.00;88.00;;;;;;4985605;28;20513;-71
2023/05/08 05:44:25;;;;;;;2.50;2.30;;;18.00;88.00;;;;;;5018907;28;20516;-71
2023/05/08 05:46:54;;;;;;;2.93;2.73;;;18.00;88.10;;;;;;4998086;28;20826;-71
2023/05/08 05:49:24;;;;;;;3.10;2.57;;;18.00;88.50;;;;;;5002974;28;20986;-71
2023/05/08 05:51:53;;;;;;;2.90;2.60;;;18.00;88.60;;;;;;4985063;28;20478;-71
2023/05/08 05:54:22;;;;;;;1.80;1.70;;;18.00;89.00;;;;;;5004871;28;20485;-71
2023/05/08 05:56:50;;;;;;;3.60;2.87;;;18.00;90.00;;;;;;5012725;28;20502;-71
2023/05/08 05:59:18;;;;;;;5.00;2.57;;;18.00;89.20;;;;;;5014985;28;20470;-71
2023/05/08 06:01:47;;;;;;;2.90;2.70;;;18.00;89.10;;;;;;4984700;28;20454;-73
2023/05/08 06:04:15;;;;;;;2.93;2.60;;;18.00;89.00;;;;;;4986150;28;20462;-71
2023/05/08 06:06:45;;;;;;;2.73;2.50;;;18.00;89.30;;;;;;4969776;28;20876;-71
2023/05/08 06:09:15;;;;;;;2.90;2.70;;;18.00;89.10;;;;;;4984902;28;20466;-71
2023/05/08 06:11:44;;;;;;;2.43;2.23;;;18.00;89.10;;;;;;4977772;28;20465;-71
2023/05/08 06:14:13;;;;;;;2.40;2.03;;;18.00;88.90;;;;;;4984433;28;20997;-71
2023/05/08 06:16:41;;;;;;;2.93;2.73;;;18.00;89.00;;;;;;5001529;28;20442;-71
2023/05/08 06:19:09;;;;;;;2.40;2.20;;;17.90;89.10;;;;;;4983099;28;20536;-71
2023/05/08 06:21:38;;;;;;;3.23;2.90;;;18.00;89.10;;;;;;4985171;28;20905;-71
2023/05/08 06:24:08;;;;;;;2.53;2.30;;;18.00;89.10;;;;;;5006147;28;20555;-71
2023/05/08 06:26:36;;;;;;;3.00;2.80;;;18.00;89.20;;;;;;5002509;28;20454;-71
2023/05/08 06:29:05;;;;;;;2.40;2.20;;;17.90;88.90;;;;;;5001623;28;20473;-71
2023/05/08 06:31:33;;;;;;;2.87;2.67;;;17.90;89.10;;;;;;4983390;28;20537;-71
2023/05/08 06:34:02;;;;;;;4.23;2.87;;;18.00;89.40;;;;;;4981246;28;20573;-71
2023/05/08 06:36:30;;;;;;;2.30;2.00;;;17.90;89.50;;;;;;4996861;28;20510;-71
2023/05/08 06:38:58;;;;;;;2.00;1.80;;;18.00;89.60;;;;;;5004744;28;20462;-71
2023/05/08 06:41:28;;;;;;;1.97;1.87;;;18.00;89.20;;;;;;5002139;28;20842;-72
2023/05/08 06:43:56;;;;;;;2.37;1.90;;;18.00;89.10;;;;;;4980674;28;20505;-71
2023/05/08 06:46:25;;;;;;;2.73;2.10;;;18.00;89.40;;;;;;5000094;28;20509;-71
2023/05/08 06:48:53;;;;;;;2.10;1.83;;;18.00;89.40;;;;;;4986715;28;21019;-71
2023/05/08 06:51:22;;;;;;;2.10;1.77;;;18.00;88.80;;;;;;5000964;28;20438;-71
2023/05/08 06:53:50;;;;;;;2.10;1.70;;;18.00;88.60;;;;;;4992396;28;20461;-71
2023/05/08 06:56:18;;;;;;;1.70;1.47;;;18.10;88.40;;;;;;5005765;28;20521;-71
2023/05/08 06:58:48;;;;;;;1.60;1.40;;;18.10;88.50;;;;;;5013578;28;20485;-71
2023/05/08 07:01:31;;;;;;;1.37;1.27;;;18.10;88.10;;;;;;4990565;28;20449;-71
2023/05/08 07:04:00;;;;;;;1.60;1.40;;;18.10;88.00;;;;;;4995903;28;20470;-71
2023/05/08 07:06:29;;;;;;;2.00;1.60;;;18.10;87.90;;;;;;4990160;28;20537;-71
2023/05/08 07:08:58;;;;;;;1.80;1.70;;;18.10;87.80;;;;;;5005121;28;20451;-71
2023/05/08 07:11:26;;;;;;;1.60;1.43;;;18.10;87.70;;;;;;5005268;28;20446;-71
2023/05/08 07:13:56;;;;;;;2.20;2.00;;;18.20;87.70;;;;;;4984239;28;20478;-72
2023/05/08 07:16:24;;;;;;;1.73;1.33;;;18.20;87.50;;;;;;4990138;28;20545;-71
2023/05/08 07:18:54;;;;;;;2.37;1.60;;;18.20;87.30;;;;;;4996903;28;20486;-71
2023/05/08 07:21:22;;;;;;;2.20;1.63;;;18.20;87.30;;;;;;4990648;28;20438;-71
2023/05/08 07:23:52;;;;;;;1.50;1.37;;;18.20;87.20;;;;;;5008551;28;20557;-71
2023/05/08 07:26:21;;;;;;;1.87;1.60;;;18.20;87.00;;;;;;4988524;28;20926;-71
2023/05/08 07:28:52;;;;;;;1.50;1.20;;;18.30;87.10;;;;;;4988307;28;20993;-71
2023/05/08 07:31:22;;;;;;;2.07;1.60;;;18.20;86.90;;;;;;4988027;28;20536;-73
2023/05/08 07:33:51;;;;;;;1.50;1.40;;;18.30;87.00;;;;;;4975629;28;20987;-71
2023/05/08 07:36:19;;;;;;;1.93;1.50;;;18.30;86.90;;;;;;4969978;28;20449;-71
2023/05/08 07:38:47;;;;;;;2.07;1.70;;;18.30;86.90;;;;;;4981975;28;20509;-71
2023/05/08 07:41:16;;;;;;;1.60;1.23;;;18.30;86.90;;;;;;4989293;28;20423;-72
2023/05/08 07:43:44;;;;;;;1.77;1.57;;;18.30;86.90;;;;;;5001561;28;20490;-71
2023/05/08 07:46:17;;;;;;;1.67;1.57;;;18.20;86.80;;;;;;4988410;28;20985;-71
2023/05/08 07:48:47;;;;;;;1.30;1.13;;;18.30;86.70;;;;;;4996047;28;20482;-71
2023/05/08 07:51:15;;;;;;;3.50;1.77;;;18.30;86.80;;;;;;5003264;28;20450;-71
2023/05/08 07:53:44;;;;;;;1.77;1.60;;;18.30;86.70;;;;;;4984136;28;20932;-71
2023/05/08 07:56:12;;;;;;;1.60;1.40;;;18.30;86.70;;;;;;4997096;28;20961;-71
2023/05/08 07:58:41;;;;;;;1.93;1.57;;;18.30;86.60;;;;;;4986386;28;21073;-71
2023/05/08 08:01:09;;;;;;;1.57;1.43;;;18.30;86.50;;;;;;4977725;28;21082;-71
2023/05/08 08:03:38;;;;;;;1.60;1.50;;;18.30;86.50;;;;;;5009431;28;20468;-71
2023/05/08 08:06:08;;;;;;;2.30;1.60;;;18.30;86.40;;;;;;4981903;28;20438;-71
2023/05/08 08:08:36;;;;;;;1.60;1.50;;;18.30;86.40;;;;;;4986882;28;21062;-71
2023/05/08 08:11:04;;;;;;;1.83;1.60;;;18.30;86.40;;;;;;4986584;28;20453;-71
2023/05/08 08:13:33;;;;;;;1.70;1.60;;;18.30;86.30;;;;;;4988026;28;20609;-71
2023/05/08 08:16:03;;;;;;;1.40;1.30;;;18.30;86.30;;;;;;4982780;28;20469;-71
2023/05/08 08:18:34;;;;;;;2.27;1.87;;;18.30;86.30;;;;;;4996740;28;20468;-71
2023/05/08 08:21:07;;;;;;;1.90;1.23;;;18.30;86.30;;;;;;4991260;28;20457;-71
2023/05/08 08:23:35;;;;;;;1.57;1.47;;;18.30;86.20;;;;;;5003645;28;20899;-71
2023/05/08 08:26:03;;;;;;;1.70;1.40;;;18.30;86.10;;;;;;5008674;28;20452;-71
2023/05/08 08:28:32;;;;;;;3.03;2.30;;;18.30;86.10;;;;;;4987444;28;20532;-71
2023/05/08 08:31:00;;;;;;;2.63;2.23;;;18.50;86.70;;;;;;5003391;28;20446;-71
2023/05/08 08:33:29;;;;;;;2.13;1.87;;;18.70;85.20;;;;;;5006526;28;21248;-71
2023/05/08 08:35:57;;;;;;;2.37;1.80;;;18.80;84.50;;;;;;4991738;28;20445;-71
2023/05/08 08:38:27;;;;;;;3.50;2.60;;;18.90;84.40;;;;;;4990784;28;20557;-71
2023/05/08 08:40:55;;;;;;;3.17;2.87;;;18.90;84.20;;;;;;4979641;28;21184;-71
2023/05/08 08:43:23;;;;;;;3.07;2.77;;;18.90;84.70;;;;;;4991786;28;20470;-71
2023/05/08 08:45:52;;;;;;;2.97;2.50;;;18.90;84.20;;;;;;5003181;28;20529;-70
2023/05/08 08:48:25;;;;;;;2.90;2.40;;;18.90;84.20;;;;;;5002530;28;20450;-71
2023/05/08 08:50:58;;;;;;;3.53;2.83;;;18.90;84.70;;;;;;4986714;28;20446;-71
2023/05/08 08:53:35;;;;;;;2.80;2.50;;;18.90;84.70;;;;;;4996462;28;20470;-71
2023/05/08 08:56:07;;;;;;;3.23;2.70;;;18.90;85.20;;;;;;4981140;28;20982;-71
2023/05/08 08:58:38;;;;;;;3.30;2.97;;;18.80;85.80;;;;;;4982541;28;20569;-71
2023/05/08 09:01:09;;;;;;;3.37;3.07;;;18.80;87.90;;;;;;4983731;28;20578;-65
2023/05/08 09:03:37;;;;;;;3.00;2.70;;;18.70;86.70;;;;;;4981729;28;20501;-63
2023/05/08 09:06:07;;;;;;;4.30;3.90;;;18.70;86.80;;;;;;4970751;28;20520;-65
2023/05/08 09:08:37;;;;;;;4.20;3.47;;;18.70;87.20;;;;;;4983971;28;20470;-65
2023/05/08 09:11:06;;;;;;;5.27;3.73;;;18.60;87.90;;;;;;4966374;28;20458;-65
2023/05/08 09:13:34;;;;;;;5.17;4.67;;;18.60;87.90;;;;;;4996688;28;20552;-65
2023/05/08 09:16:04;;;;;;;4.53;4.13;;;18.60;87.60;;;;;;4987826;28;20454;-65
2023/05/08 09:18:32;;;;;;;2.63;2.40;;;18.60;88.30;;;;;;4990024;28;20466;-66
2023/05/08 09:21:01;;;;;;;5.70;5.20;;;18.50;87.50;;;;;;4998733;28;20929;-65
2023/05/08 09:23:30;;;;;;;5.93;3.90;;;18.50;88.50;;;;;;5004369;28;20467;-66
2023/05/08 09:25:59;;;;;;;3.60;3.30;;;18.50;88.50;;;;;;4995581;28;20481;-66
2023/05/08 09:28:28;;;;;;;3.33;3.03;;;18.50;88.40;;;;;;4997100;28;20534;-66
2023/05/08 09:30:57;;;;;;;4.33;3.93;;;18.40;88.10;;;;;;4986978;28;20468;-65
2023/05/08 09:33:27;;;;;;;3.60;3.27;;;18.40;88.00;;;;;;5002258;28;20498;-66
2023/05/08 09:35:56;;;;;;;3.93;2.93;;;18.40;88.00;;;;;;4987254;28;20855;-66
2023/05/08 09:38:35;;;;;;;3.33;3.07;;;18.30;87.80;;;;;;4988893;28;20445;-66
2023/05/08 09:41:10;;;;;;;2.90;2.60;;;18.30;87.80;;;;;;4980818;28;20449;-66
2023/05/08 09:43:39;;;;;;;3.37;3.07;;;18.30;87.90;;;;;;4986684;28;20485;-66
2023/05/08 09:46:22;;;;;;;2.90;2.60;;;18.30;87.80;;;;;;4984004;28;20930;-66
2023/05/08 09:48:51;;;;;;;2.87;2.60;;;18.30;87.80;;;;;;4998845;28;20468;-66
2023/05/08 09:51:20;;;;;;;5.00;2.60;;;18.30;89.10;;;;;;5005189;28;20477;-66
2023/05/08 09:53:51;;;;;;;3.10;2.83;;;18.30;87.70;;;;;;5005815;28;20513;-66
2023/05/08 09:56:35;;;;;;;3.60;3.30;;;18.30;87.80;;;;;;5006555;28;20536;-66
2023/05/08 09:59:06;;;;;;;2.87;2.67;;;18.30;87.80;;;;;;4975302;28;20470;-66
2023/05/08 10:01:35;;;;;;;3.33;3.03;;;18.30;87.80;;;;;;4967939;28;20839;-66
2023/05/08 10:04:04;;;;;;;2.80;2.60;;;18.30;87.80;;;;;;4965522;28;20489;-65
2023/05/08 10:06:35;;;;;;;3.20;2.90;;;18.30;87.80;;;;;;4985737;28;20538;-66
2023/05/08 10:09:07;;;;;;;3.60;3.30;;;18.30;87.80;;;;;;4996657;28;20515;-66
2023/05/08 10:11:38;;;;;;;3.47;3.17;;;18.30;87.80;;;;;;4998543;28;21328;-66
2023/05/08 10:14:07;;;;;;;3.20;2.90;;;18.30;87.60;;;;;;4979944;28;20506;-66
2023/05/08 10:16:41;;;;;;;3.30;2.60;;;18.30;87.80;;;;;;4981047;28;21306;-65
2023/05/08 10:19:14;;;;;;;2.70;2.50;;;18.20;87.70;;;;;;4994188;28;20470;-66
2023/05/08 10:21:46;;;;;;;3.00;2.80;;;18.30;87.80;;;;;;5001391;28;20540;-66
2023/05/08 10:24:17;;;;;;;3.33;3.03;;;18.30;87.90;;;;;;4987875;28;20831;-66
2023/05/08 10:26:55;;;;;;;2.87;2.67;;;18.30;87.80;;;;;;4983995;28;20457;-65
2023/05/08 10:29:42;;;;;;;3.43;2.90;;;18.20;87.70;;;;;;4983921;28;20478;-65
2023/05/08 10:32:13;;;;;;;3.13;2.87;;;18.20;87.70;;;;;;5001214;28;21021;-66
2023/05/08 10:34:42;;;;;;;2.70;2.50;;;18.20;87.60;;;;;;4984636;28;20470;-66
2023/05/08 10:37:10;;;;;;;3.40;2.80;;;18.20;87.70;;;;;;4979151;28;20834;-65
2023/05/08 10:39:40;;;;;;;2.93;2.47;;;18.20;87.70;;;;;;4979945;28;20505;-65
2023/05/08 10:42:10;;;;;;;3.73;2.80;;;18.20;87.70;;;;;;4985493;28;20441;-66
2023/05/08 10:44:39;;;;;;;3.20;2.80;;;18.20;87.80;;;;;;5002024;28;20473;-65
2023/05/08 10:47:16;;;;;;;3.40;3.10;;;18.20;87.80;;;;;;4985832;28;20458;-65
2023/05/08 10:49:51;;;;;;;3.10;2.77;;;18.20;87.80;;;;;;5004883;28;20453;-65
2023/05/08 10:52:27;;;;;;;3.50;3.20;;;18.20;87.80;;;;;;4997999;28;20462;-66
2023/05/08 10:55:19;;;;;;;2.97;2.77;;;18.20;87.90;;;;;;4986091;28;20480;-66
2023/05/08 10:58:06;;;;;;;3.07;2.80;;;18.20;88.00;;;;;;4991791;28;20820;-66
2023/05/08 11:01:13;;;;;;;3.30;3.00;;;18.20;88.00;;;;;;4985262;28;20442;-66
2023/05/08 11:03:44;;;;;;;4.07;3.67;;;18.20;88.10;;;;;;4987281;28;20469;-66
2023/05/08 11:06:13;;;;;;;3.17;2.63;;;18.20;88.10;;;;;;4986024;28;20430;-66
2023/05/08 11:08:53;;;;;;;3.20;2.90;;;18.20;88.10;;;;;;4984983;28;20489;-66
2023/05/08 11:11:28;;;;;;;2.87;2.67;;;18.20;88.10;;;;;;4992872;28;21199;-66
2023/05/08 11:14:11;;;;;;;3.37;3.07;;;18.20;88.10;;;;;;4999507;28;20887;-66
2023/05/08 11:17:07;;;;;;;3.13;2.83;;;18.20;88.20;;;;;;4986008;28;20964;-65
2023/05/08 11:19:37;;;;;;;3.37;3.10;;;18.20;88.00;;;;;;5004153;28;20469;-66
2023/05/08 11:22:23;;;;;;;3.17;2.90;;;18.20;88.10;;;;;;4985443;28;20457;-66
2023/05/08 11:24:57;;;;;;;3.80;2.97;;;18.30;88.10;;;;;;4989103;28;20533;-66
2023/05/08 11:28:08;;;;;;;3.13;2.93;;;18.20;88.00;;;;;;4993808;28;20444;-71
2023/05/08 11:30:40;;;;;;;3.60;3.30;;;18.30;88.00;;;;;;4999699;28;20500;-71
2023/05/08 11:33:16;;;;;;;2.80;2.60;;;18.20;88.40;;;;;;4987415;28;20470;-71
2023/05/08 11:35:50;;;;;;;3.10;2.90;;;18.30;88.30;;;;;;5002515;28;20444;-71
2023/05/08 11:38:21;;;;;;;3.47;3.17;;;18.20;89.30;;;;;;5000251;28;20453;-71
2023/05/08 11:41:04;;;;;;;2.77;2.57;;;18.20;88.00;;;;;;5002818;28;20461;-71
2023/05/08 11:44:17;;;;;;;3.83;3.43;;;18.20;87.90;;;;;;4988937;28;20557;-71
2023/05/08 11:46:50;;;;;;;3.40;3.10;;;18.20;88.00;;;;;;5004535;28;20532;-71
2023/05/08 11:49:20;;;;;;;3.73;3.43;;;18.30;87.90;;;;;;5013912;28;20457;-71
2023/05/08 11:51:57;;;;;;;2.73;2.53;;;18.30;87.80;;;;;;5000009;28;20473;-71
2023/05/08 11:54:28;;;;;;;3.40;3.10;;;18.30;87.90;;;;;;4970211;28;20499;-71
2023/05/08 11:56:58;;;;;;;3.80;3.50;;;18.30;87.90;;;;;;4969231;28;20537;-71
2023/05/08 11:59:26;;;;;;;2.60;2.40;;;18.30;87.80;;;;;;5005667;28;20548;-71
2023/05/08 12:01:56;;;;;;;3.37;3.07;;;18.30;87.80;;;;;;4994170;28;20452;-71
2023/05/08 12:04:44;;;;;;;3.17;2.87;;;18.30;87.80;;;;;;5009104;28;20477;-71
2023/05/08 12:07:12;;;;;;;3.00;2.80;;;18.30;87.80;;;;;;5000151;28;20478;-71
2023/05/08 12:09:41;;;;;;;2.67;2.47;;;18.30;87.80;;;;;;4985736;28;20570;-66
2023/05/08 12:12:09;;;;;;;2.93;2.70;;;18.30;87.70;;;;;;4985857;28;20478;-66
2023/05/08 12:14:38;;;;;;;2.90;2.70;;;18.30;87.80;;;;;;4984143;28;20478;-66
2023/05/08 12:17:07;;;;;;;3.77;3.37;;;18.30;87.60;;;;;;4997988;28;20462;-65
2023/05/08 12:19:36;;;;;;;3.60;3.30;;;18.30;87.70;;;;;;4979720;28;21011;-66
2023/05/08 12:22:04;;;;;;;3.77;3.23;;;18.30;87.70;;;;;;4966203;28;20436;-66
2023/05/08 12:24:33;;;;;;;3.43;3.13;;;18.40;87.80;;;;;;4965513;28;20534;-65
2023/05/08 12:27:01;;;;;;;3.40;3.10;;;18.40;87.70;;;;;;4969992;28;20428;-66
2023/05/08 12:29:29;;;;;;;3.00;2.80;;;18.40;87.80;;;;;;4968807;28;20485;-66
2023/05/08 12:31:58;;;;;;;3.13;2.83;;;18.40;87.80;;;;;;4973252;28;20455;-65
2023/05/08 12:34:28;;;;;;;2.80;2.60;;;18.40;87.60;;;;;;5002177;28;20494;-66
2023/05/08 12:37:03;;;;;;;3.40;3.17;;;18.40;87.70;;;;;;4988803;28;20977;-66
2023/05/08 12:39:36;;;;;;;3.10;2.80;;;18.40;87.60;;;;;;4977838;28;20474;-66
2023/05/08 12:42:05;;;;;;;3.20;2.90;;;18.40;87.60;;;;;;4977941;28;20451;-65
2023/05/08 12:44:33;;;;;;;4.37;2.70;;;18.40;87.50;;;;;;5002534;28;20549;-66
2023/05/08 12:47:01;;;;;;;3.73;3.43;;;18.40;87.50;;;;;;4987978;28;20439;-66
2023/05/08 12:49:32;;;;;;;3.20;3.00;;;18.40;87.50;;;;;;5013265;28;20480;-66
2023/05/08 12:52:05;;;;;;;3.40;3.10;;;18.40;87.70;;;;;;5010500;28;20988;-66
2023/05/08 12:54:38;;;;;;;2.90;2.70;;;18.40;87.60;;;;;;4995640;28;20513;-66
2023/05/08 12:57:11;;;;;;;3.80;3.47;;;18.40;87.60;;;;;;5003916;28;20449;-66
2023/05/08 12:59:39;;;;;;;3.20;2.90;;;18.40;87.70;;;;;;4981369;28;20553;-67
2023/05/08 13:02:15;;;;;;;3.30;3.00;;;18.40;87.60;;;;;;4967797;28;20443;-66
2023/05/08 13:04:45;;;;;;;3.03;2.80;;;18.40;87.70;;;;;;5006273;28;20470;-66
2023/05/08 13:07:16;;;;;;;3.87;3.47;;;18.40;87.50;;;;;;4989960;28;20441;-65
2023/05/08 13:09:58;;;;;;;3.83;2.93;;;18.50;87.80;;;;;;4966578;28;20481;-65
2023/05/08 13:12:27;;;;;;;3.27;3.00;;;18.40;87.80;;;;;;4967228;28;20494;-65